Terminal Aerodrome Forecast
Issued by NWS

Home | Current Version | Previous Version | Text Only | Print | Product List | Glossary On
Versions: 1 2 3 4 5 6 7 8 9 10 11 12 13 14 15 16
806
FTUS44 KLZK 242332
TAFHRO
TAF
KHRO 242332Z 2500/2524 30008KT P6SM VCSH BKN050 OVC080
     FM250300 28007KT P6SM SCT050 BKN080
     FM250600 28005KT P6SM FEW050 SCT250
     FM251500 19006KT P6SM FEW050 SCT250=

USA.gov is the U.S. government's official web portal to all federal, state and local government web resources and services.